Time;durP1;ratioP1;P1;durP2;ratioP2;P2;SDS_P1;SDS_P2;PMS_P1;PMS_P2;Temp;Humidity;BMP_temperature;BMP_pressure;BME280_temperature;BME280_humidity;BME280_pressure;Samples;Min_cycle;Max_cycle;Signal;HPM_P1;HPM_P2
2023/09/13 00:00:47;;;;;;;1999.90;999.90;;;;;;;;;;5079687;28;20492;-91
2023/09/13 00:03:14;;;;;;;1999.90;999.90;;;;;;;;;;5081924;28;20067;-92
2023/09/13 00:05:42;;;;;;;1999.90;999.90;;;;;;;;;;5083309;28;20514;-93
2023/09/13 00:08:09;;;;;;;1999.90;999.90;;;;;;;;;;5079734;28;20056;-93
2023/09/13 00:10:35;;;;;;;1999.90;999.90;;;;;;;;;;5085319;28;20049;-92
2023/09/13 00:13:02;;;;;;;1999.90;999.90;;;;;;;;;;5079992;28;20457;-91
2023/09/13 00:15:29;;;;;;;1999.90;999.90;;;;;;;;;;5087670;28;20044;-92
2023/09/13 00:17:56;;;;;;;1999.90;999.90;;;;;;;;;;5083837;28;20048;-91
2023/09/13 00:20:23;;;;;;;1999.90;999.90;;;;;;;;;;5082136;28;20044;-91
2023/09/13 00:22:49;;;;;;;1999.90;999.90;;;;;;;;;;5084612;28;20052;-92
2023/09/13 00:25:16;;;;;;;1999.90;999.90;;;;;;;;;;5083491;28;20049;-91
2023/09/13 00:27:42;;;;;;;1999.90;999.90;;;;;;;;;;5083112;28;20135;-91
2023/09/13 00:30:10;;;;;;;1999.90;999.90;;;;;;;;;;5085242;28;20051;-91
2023/09/13 00:32:38;;;;;;;1999.90;999.90;;;;;;;;;;5083841;28;20059;-90
2023/09/13 00:35:06;;;;;;;1999.90;999.90;;;;;;;;;;5080485;28;20047;-90
2023/09/13 00:37:32;;;;;;;1999.90;999.90;;;;;;;;;;5078967;28;20059;-91
2023/09/13 00:39:58;;;;;;;1999.90;999.90;;;;;;;;;;5080536;28;20496;-91
2023/09/13 00:42:25;;;;;;;1999.90;999.90;;;;;;;;;;5083828;28;20052;-91
2023/09/13 00:44:52;;;;;;;1999.90;999.90;;;;;;;;;;5080991;28;20417;-91
2023/09/13 00:47:18;;;;;;;1999.90;999.90;;;;;;;;;;5082989;28;20139;-90
2023/09/13 00:49:47;;;;;;;1999.90;999.90;;;;;;;;;;5083734;28;20055;-92
2023/09/13 00:52:14;;;;;;;1999.90;999.90;;;;;;;;;;5081286;28;20055;-91
2023/09/13 00:54:41;;;;;;;1999.90;999.90;;;;;;;;;;5082533;28;20088;-91
2023/09/13 00:57:07;;;;;;;1999.90;999.90;;;;;;;;;;5081876;28;20052;-90
2023/09/13 00:59:34;;;;;;;1999.90;999.90;;;;;;;;;;5079604;28;20052;-90
2023/09/13 01:02:01;;;;;;;1999.90;999.90;;;;;;;;;;5080077;28;20052;-90
2023/09/13 01:04:28;;;;;;;1999.90;999.90;;;;;;;;;;5075979;28;20071;-90
2023/09/13 01:06:56;;;;;;;1999.90;999.90;;;;;;;;;;5080437;28;20568;-90
2023/09/13 01:09:22;;;;;;;1999.90;999.90;;;;;;;;;;5080636;28;20059;-91
2023/09/13 01:11:49;;;;;;;1999.90;999.90;;;;;;;;;;5084762;28;20130;-91
2023/09/13 01:14:15;;;;;;;1999.90;999.90;;;;;;;;;;5081044;28;20151;-90
2023/09/13 01:16:47;;;;;;;1999.90;999.90;;;;;;;;;;5077262;28;20623;-91
2023/09/13 01:19:31;;;;;;;1999.90;999.90;;;;;;;;;;5079723;28;20052;-92
2023/09/13 01:22:10;;;;;;;1999.90;999.90;;;;;;;;;;5085488;28;20044;-91
2023/09/13 01:25:06;;;;;;;1999.90;999.90;;;;;;;;;;5080404;28;20048;-91
2023/09/13 01:27:39;;;;;;;1999.90;999.90;;;;;;;;;;5084384;28;20048;-91
2023/09/13 01:30:09;;;;;;;1999.90;999.90;;;;;;;;;;5076833;28;20059;-91
2023/09/13 01:32:36;;;;;;;1999.90;999.90;;;;;;;;;;5081139;28;20130;-91
2023/09/13 01:35:02;;;;;;;1999.90;999.90;;;;;;;;;;5083825;28;20055;-91
2023/09/13 01:37:30;;;;;;;1999.90;999.90;;;;;;;;;;5080214;28;20454;-93
2023/09/13 01:39:57;;;;;;;1999.90;999.90;;;;;;;;;;5080710;28;20051;-90
2023/09/13 01:42:24;;;;;;;1999.90;999.90;;;;;;;;;;5083738;28;20472;-91
2023/09/13 01:44:51;;;;;;;1999.90;999.90;;;;;;;;;;5083237;28;20051;-91
2023/09/13 01:47:19;;;;;;;1999.90;999.90;;;;;;;;;;5079978;28;20054;-91
2023/09/13 01:49:46;;;;;;;1999.90;999.90;;;;;;;;;;5080672;28;20044;-91
2023/09/13 01:52:13;;;;;;;1999.90;999.90;;;;;;;;;;5076151;28;20044;-91
2023/09/13 01:54:39;;;;;;;1999.90;999.90;;;;;;;;;;5079928;28;20058;-91
2023/09/13 01:57:06;;;;;;;1999.90;999.90;;;;;;;;;;5081279;28;20518;-91
2023/09/13 01:59:33;;;;;;;1999.90;999.90;;;;;;;;;;5080594;28;20044;-91
2023/09/13 02:02:00;;;;;;;1999.90;999.90;;;;;;;;;;5080684;28;20048;-91
2023/09/13 02:04:32;;;;;;;1999.90;999.90;;;;;;;;;;5079545;28;20052;-92
2023/09/13 02:06:59;;;;;;;1999.90;999.90;;;;;;;;;;5083033;28;20076;-91
2023/09/13 02:09:26;;;;;;;1999.90;999.90;;;;;;;;;;5075328;28;20064;-90
2023/09/13 02:11:52;;;;;;;1999.90;999.90;;;;;;;;;;5087946;28;20488;-91
2023/09/13 02:14:19;;;;;;;1999.90;999.90;;;;;;;;;;5079576;28;20055;-91
2023/09/13 02:16:45;;;;;;;1999.90;999.90;;;;;;;;;;5081807;28;20048;-91
2023/09/13 02:19:12;;;;;;;1999.90;999.90;;;;;;;;;;5080246;28;20051;-91
2023/09/13 02:21:41;;;;;;;1999.90;999.90;;;;;;;;;;5078078;28;20063;-91
2023/09/13 02:24:08;;;;;;;1999.90;999.90;;;;;;;;;;5080022;28;20263;-92
2023/09/13 02:26:36;;;;;;;1999.90;999.90;;;;;;;;;;5080199;28;20059;-93
2023/09/13 02:29:03;;;;;;;1999.90;999.90;;;;;;;;;;5086522;28;20052;-90
2023/09/13 02:31:30;;;;;;;1999.90;999.90;;;;;;;;;;5081056;28;20067;-90
2023/09/13 02:33:56;;;;;;;1999.90;999.90;;;;;;;;;;5082145;28;20048;-90
2023/09/13 02:36:23;;;;;;;1999.90;999.90;;;;;;;;;;5085553;28;20059;-91
2023/09/13 02:38:51;;;;;;;1999.90;999.90;;;;;;;;;;5076866;28;20107;-91
2023/09/13 02:41:17;;;;;;;1999.90;999.90;;;;;;;;;;5075919;28;20048;-90
2023/09/13 02:43:44;;;;;;;1999.90;999.90;;;;;;;;;;5081621;28;20493;-90
2023/09/13 02:46:10;;;;;;;1999.90;999.90;;;;;;;;;;5079930;28;20044;-90
2023/09/13 02:48:37;;;;;;;1999.90;999.90;;;;;;;;;;5080321;28;20051;-90
2023/09/13 02:51:03;;;;;;;1999.90;999.90;;;;;;;;;;5081390;28;20041;-91
2023/09/13 02:53:31;;;;;;;1999.90;999.90;;;;;;;;;;5079455;28;20044;-91
2023/09/13 02:56:05;;;;;;;1999.90;999.90;;;;;;;;;;5077870;28;20587;-90
2023/09/13 02:58:31;;;;;;;1999.90;999.90;;;;;;;;;;5074625;28;20055;-90
2023/09/13 03:00:58;;;;;;;1999.90;999.90;;;;;;;;;;5080043;28;20044;-90
2023/09/13 03:03:25;;;;;;;1999.90;999.90;;;;;;;;;;5081257;28;20052;-90
2023/09/13 03:05:51;;;;;;;1999.90;999.90;;;;;;;;;;5081838;28;20044;-90
2023/09/13 03:08:18;;;;;;;1999.90;999.90;;;;;;;;;;5089168;28;20052;-90
2023/09/13 03:10:44;;;;;;;1999.90;999.90;;;;;;;;;;5085561;28;20345;-90
2023/09/13 03:13:12;;;;;;;1999.90;999.90;;;;;;;;;;5085327;28;20048;-90
2023/09/13 03:15:39;;;;;;;1999.90;999.90;;;;;;;;;;5082354;28;20048;-90
2023/09/13 03:18:06;;;;;;;1999.90;999.90;;;;;;;;;;5081828;28;20051;-92
2023/09/13 03:20:32;;;;;;;1999.90;999.90;;;;;;;;;;5085848;28;20416;-91
2023/09/13 03:22:59;;;;;;;1999.90;999.90;;;;;;;;;;5083693;28;20050;-90
2023/09/13 03:25:25;;;;;;;1999.90;999.90;;;;;;;;;;5085054;28;20056;-90
2023/09/13 03:27:52;;;;;;;1999.90;999.90;;;;;;;;;;5080953;28;20053;-90
2023/09/13 03:30:20;;;;;;;1999.90;999.90;;;;;;;;;;5083286;28;20056;-90
2023/09/13 03:32:46;;;;;;;1999.90;999.90;;;;;;;;;;5084088;28;20048;-90
2023/09/13 03:35:13;;;;;;;1999.90;999.90;;;;;;;;;;5084609;28;20059;-90
2023/09/13 03:37:39;;;;;;;1999.90;999.90;;;;;;;;;;5081456;28;20500;-90
2023/09/13 03:40:07;;;;;;;1999.90;999.90;;;;;;;;;;5087327;28;20586;-90
2023/09/13 03:42:34;;;;;;;1999.90;999.90;;;;;;;;;;5078382;28;20102;-91
2023/09/13 03:45:01;;;;;;;1999.90;999.90;;;;;;;;;;5084678;28;20059;-90
2023/09/13 03:47:29;;;;;;;1999.90;999.90;;;;;;;;;;5084368;28;20048;-90
2023/09/13 03:49:55;;;;;;;1999.90;999.90;;;;;;;;;;5082602;28;20485;-90
2023/09/13 03:52:22;;;;;;;1999.90;999.90;;;;;;;;;;5085245;28;20058;-90
2023/09/13 03:54:49;;;;;;;1999.90;999.90;;;;;;;;;;5081316;28;20048;-90
2023/09/13 03:57:15;;;;;;;1999.90;999.90;;;;;;;;;;5085465;28;20052;-91
2023/09/13 03:59:42;;;;;;;1999.90;999.90;;;;;;;;;;5083912;28;20054;-90
2023/09/13 04:02:08;;;;;;;1999.90;999.90;;;;;;;;;;5085090;28;20040;-90
2023/09/13 04:04:36;;;;;;;1999.90;999.90;;;;;;;;;;5081475;28;20515;-91
2023/09/13 04:07:03;;;;;;;1999.90;999.90;;;;;;;;;;5081355;28;20055;-90
2023/09/13 04:09:29;;;;;;;1999.90;999.90;;;;;;;;;;5083747;28;20071;-90
2023/09/13 04:11:56;;;;;;;1999.90;999.90;;;;;;;;;;5088450;28;20049;-90
2023/09/13 04:14:23;;;;;;;1999.90;999.90;;;;;;;;;;5082622;28;20048;-89
2023/09/13 04:16:49;;;;;;;1999.90;999.90;;;;;;;;;;5080715;28;20045;-90
2023/09/13 04:19:16;;;;;;;1999.90;999.90;;;;;;;;;;5082832;28;20052;-91
2023/09/13 04:21:44;;;;;;;1999.90;999.90;;;;;;;;;;5079872;28;20428;-90
2023/09/13 04:24:10;;;;;;;1999.90;999.90;;;;;;;;;;5083507;28;20044;-90
2023/09/13 04:26:37;;;;;;;1999.90;999.90;;;;;;;;;;5079821;28;20508;-89
2023/09/13 04:29:06;;;;;;;1999.90;999.90;;;;;;;;;;5084778;28;20411;-90
2023/09/13 04:31:32;;;;;;;1999.90;999.90;;;;;;;;;;5086160;28;20052;-90
2023/09/13 04:33:59;;;;;;;1999.90;999.90;;;;;;;;;;5083804;28;20052;-90
2023/09/13 04:36:25;;;;;;;1999.90;999.90;;;;;;;;;;5082231;28;20062;-90
2023/09/13 04:38:53;;;;;;;1999.90;999.90;;;;;;;;;;5081943;28;20054;-90
2023/09/13 04:41:20;;;;;;;1999.90;999.90;;;;;;;;;;5078555;28;20040;-90
2023/09/13 04:43:46;;;;;;;1999.90;999.90;;;;;;;;;;5080856;28;20051;-91
2023/09/13 04:46:13;;;;;;;1999.90;999.90;;;;;;;;;;5081870;28;20459;-89
2023/09/13 04:48:39;;;;;;;1999.90;999.90;;;;;;;;;;5081823;28;20048;-89
2023/09/13 04:51:06;;;;;;;1999.90;999.90;;;;;;;;;;5081828;28;20048;-90
2023/09/13 04:53:34;;;;;;;1999.90;999.90;;;;;;;;;;5080386;28;20052;-90
2023/09/13 04:56:02;;;;;;;1999.90;999.90;;;;;;;;;;5083081;28;20048;-90
2023/09/13 04:58:29;;;;;;;1999.90;999.90;;;;;;;;;;5085029;28;20047;-89
2023/09/13 05:00:55;;;;;;;1999.90;999.90;;;;;;;;;;5078618;28;20044;-90
2023/09/13 05:03:22;;;;;;;1999.90;999.90;;;;;;;;;;5082513;28;20052;-90
2023/09/13 05:05:48;;;;;;;1999.90;999.90;;;;;;;;;;5078761;28;20059;-90
2023/09/13 05:08:15;;;;;;;1999.90;999.90;;;;;;;;;;5084243;28;20521;-89
2023/09/13 05:10:43;;;;;;;1999.90;999.90;;;;;;;;;;5087242;28;20047;-91
2023/09/13 05:13:12;;;;;;;1999.90;999.90;;;;;;;;;;5089282;28;20048;-91
2023/09/13 05:15:43;;;;;;;1999.90;999.90;;;;;;;;;;5088464;28;20044;-91
2023/09/13 05:18:09;;;;;;;1999.90;999.90;;;;;;;;;;5090328;28;20093;-91
2023/09/13 05:20:36;;;;;;;1999.90;999.90;;;;;;;;;;5088902;28;20071;-90
2023/09/13 05:23:03;;;;;;;1999.90;999.90;;;;;;;;;;5088306;28;20045;-91
2023/09/13 05:25:29;;;;;;;1999.90;999.90;;;;;;;;;;5086714;28;20059;-91
2023/09/13 05:27:56;;;;;;;1999.90;999.90;;;;;;;;;;5084256;28;20056;-90
2023/09/13 05:30:25;;;;;;;1999.90;999.90;;;;;;;;;;5081307;28;20052;-91
2023/09/13 05:32:51;;;;;;;1999.90;999.90;;;;;;;;;;5080322;28;20059;-86
2023/09/13 05:35:18;;;;;;;1999.90;999.90;;;;;;;;;;5084185;28;20056;-86
2023/09/13 05:37:44;;;;;;;1999.90;999.90;;;;;;;;;;5083325;28;20048;-87
2023/09/13 05:40:12;;;;;;;1999.90;999.90;;;;;;;;;;5076722;28;20055;-86
2023/09/13 05:42:38;;;;;;;1999.90;999.90;;;;;;;;;;5079275;28;20055;-87
2023/09/13 05:45:06;;;;;;;1999.90;999.90;;;;;;;;;;5082284;28;20138;-87
2023/09/13 05:47:34;;;;;;;1999.90;999.90;;;;;;;;;;5081151;28;20052;-86
2023/09/13 05:50:00;;;;;;;1999.90;999.90;;;;;;;;;;5080903;28;20052;-88
2023/09/13 05:52:27;;;;;;;1999.90;999.90;;;;;;;;;;5080218;28;20048;-88
2023/09/13 05:54:53;;;;;;;1999.90;999.90;;;;;;;;;;5079609;28;20044;-86
2023/09/13 05:57:20;;;;;;;1999.90;999.90;;;;;;;;;;5080809;28;20404;-86
2023/09/13 05:59:46;;;;;;;1999.90;999.90;;;;;;;;;;5076801;28;20048;-89
2023/09/13 06:02:13;;;;;;;1999.90;999.90;;;;;;;;;;5080318;28;20048;-86
2023/09/13 06:04:40;;;;;;;1999.90;999.90;;;;;;;;;;5077277;28;20056;-86
2023/09/13 06:07:09;;;;;;;1999.90;999.90;;;;;;;;;;5083007;28;20054;-86
2023/09/13 06:09:35;;;;;;;1999.90;999.90;;;;;;;;;;5079265;28;20040;-86
2023/09/13 06:12:02;;;;;;;1999.90;999.90;;;;;;;;;;5078051;28;20058;-87
2023/09/13 06:14:30;;;;;;;1999.90;999.90;;;;;;;;;;5082519;28;20043;-87
2023/09/13 06:16:57;;;;;;;1999.90;999.90;;;;;;;;;;5080470;28;20055;-88
2023/09/13 06:19:23;;;;;;;1999.90;999.90;;;;;;;;;;5079870;28;20050;-87
2023/09/13 06:21:51;;;;;;;1999.90;999.90;;;;;;;;;;5081102;28;20123;-86
2023/09/13 06:24:18;;;;;;;1999.90;999.90;;;;;;;;;;5079322;28;20044;-88
2023/09/13 06:26:45;;;;;;;1999.90;999.90;;;;;;;;;;5082064;28;20041;-87
2023/09/13 06:29:12;;;;;;;1999.90;999.90;;;;;;;;;;5078353;28;20438;-87
2023/09/13 06:31:38;;;;;;;1999.90;999.90;;;;;;;;;;5078151;28;20412;-88
2023/09/13 06:34:05;;;;;;;1999.90;999.90;;;;;;;;;;5081337;28;20055;-88
2023/09/13 06:36:32;;;;;;;1999.90;999.90;;;;;;;;;;5081521;28;20549;-88
2023/09/13 06:39:00;;;;;;;1999.90;999.90;;;;;;;;;;5081919;28;20080;-87
2023/09/13 06:41:26;;;;;;;1999.90;999.90;;;;;;;;;;5079678;28;20057;-88
2023/09/13 06:43:53;;;;;;;1999.90;999.90;;;;;;;;;;5079823;28;20055;-86
2023/09/13 06:46:19;;;;;;;1999.90;999.90;;;;;;;;;;5080090;28;20053;-87
2023/09/13 06:48:46;;;;;;;1999.90;999.90;;;;;;;;;;5079169;28;20083;-88
2023/09/13 06:51:12;;;;;;;1999.90;999.90;;;;;;;;;;5078091;28;20048;-88
2023/09/13 06:53:39;;;;;;;1999.90;999.90;;;;;;;;;;5079544;28;20054;-87
2023/09/13 06:56:08;;;;;;;1999.90;999.90;;;;;;;;;;5080597;28;20053;-87
2023/09/13 06:58:34;;;;;;;1999.90;999.90;;;;;;;;;;5079039;28;20105;-87
2023/09/13 07:01:01;;;;;;;1999.90;999.90;;;;;;;;;;5082477;28;20071;-87
2023/09/13 07:03:27;;;;;;;1999.90;999.90;;;;;;;;;;5078265;28;20496;-87
2023/09/13 07:05:54;;;;;;;1999.90;999.90;;;;;;;;;;5080176;28;20058;-88
2023/09/13 07:08:20;;;;;;;1999.90;999.90;;;;;;;;;;5080994;28;20404;-88
2023/09/13 07:10:47;;;;;;;1999.90;999.90;;;;;;;;;;5076975;28;20056;-88
2023/09/13 07:13:15;;;;;;;1999.90;999.90;;;;;;;;;;5076733;28;20044;-89
2023/09/13 07:15:41;;;;;;;1999.90;999.90;;;;;;;;;;5079398;28;20041;-87
2023/09/13 07:18:08;;;;;;;1999.90;999.90;;;;;;;;;;5076867;28;20080;-87
2023/09/13 07:20:35;;;;;;;1999.90;999.90;;;;;;;;;;5078511;28;20073;-87
2023/09/13 07:23:01;;;;;;;1999.90;999.90;;;;;;;;;;5080029;28;20051;-86
2023/09/13 07:25:28;;;;;;;1999.90;999.90;;;;;;;;;;5081582;28;20048;-87
2023/09/13 07:27:54;;;;;;;1999.90;999.90;;;;;;;;;;5080756;28;20404;-88
2023/09/13 07:30:23;;;;;;;1999.90;999.90;;;;;;;;;;5076539;28;20051;-87
2023/09/13 07:32:49;;;;;;;1999.90;999.90;;;;;;;;;;5077715;28;20055;-89
2023/09/13 07:35:20;;;;;;;1999.90;999.90;;;;;;;;;;5080907;28;20387;-87
2023/09/13 07:37:46;;;;;;;1999.90;999.90;;;;;;;;;;5083323;28;20101;-87
2023/09/13 07:40:13;;;;;;;1999.90;999.90;;;;;;;;;;5077254;28;20527;-87
2023/09/13 07:42:40;;;;;;;1999.90;999.90;;;;;;;;;;5080711;28;20075;-88
2023/09/13 07:45:07;;;;;;;1999.90;999.90;;;;;;;;;;5084182;28;20063;-87
2023/09/13 07:47:35;;;;;;;1999.90;999.90;;;;;;;;;;5079437;28;20127;-86
2023/09/13 07:50:02;;;;;;;1999.90;999.90;;;;;;;;;;5086127;28;20508;-89
2023/09/13 07:52:28;;;;;;;1999.90;999.90;;;;;;;;;;5078048;28;20495;-87
2023/09/13 07:54:55;;;;;;;1999.90;999.90;;;;;;;;;;5080816;28;20045;-86
2023/09/13 07:57:21;;;;;;;1999.90;999.90;;;;;;;;;;5080023;28;20045;-88
2023/09/13 07:59:48;;;;;;;1999.90;999.90;;;;;;;;;;5084225;28;20106;-86
2023/09/13 08:02:14;;;;;;;1999.90;999.90;;;;;;;;;;5086747;28;20594;-87
2023/09/13 08:04:42;;;;;;;1999.90;999.90;;;;;;;;;;5080233;28;20060;-87
2023/09/13 08:07:09;;;;;;;1999.90;999.90;;;;;;;;;;5078163;28;20051;-88
2023/09/13 08:09:36;;;;;;;1999.90;999.90;;;;;;;;;;5081157;28;20044;-87
2023/09/13 08:12:04;;;;;;;1999.90;999.90;;;;;;;;;;5084470;28;20056;-89
2023/09/13 08:14:30;;;;;;;1999.90;999.90;;;;;;;;;;5082156;28;20047;-88
2023/09/13 08:16:57;;;;;;;1999.90;999.90;;;;;;;;;;5081934;28;20048;-89
2023/09/13 08:19:24;;;;;;;1999.90;999.90;;;;;;;;;;5083259;28;20044;-87
2023/09/13 08:21:51;;;;;;;1999.90;999.90;;;;;;;;;;5079444;28;20041;-87
2023/09/13 08:24:18;;;;;;;1999.90;999.90;;;;;;;;;;5085231;28;20048;-89
2023/09/13 08:26:45;;;;;;;1999.90;999.90;;;;;;;;;;5082224;28;20040;-88
2023/09/13 08:29:12;;;;;;;1999.90;999.90;;;;;;;;;;5082529;28;20047;-88
2023/09/13 08:31:39;;;;;;;1999.90;999.90;;;;;;;;;;5080635;28;20153;-87
2023/09/13 08:34:05;;;;;;;1999.90;999.90;;;;;;;;;;5080522;28;20044;-86
2023/09/13 08:36:35;;;;;;;1999.90;999.90;;;;;;;;;;5082801;28;20045;-89
2023/09/13 08:39:05;;;;;;;1999.90;999.90;;;;;;;;;;5082289;28;20036;-87
2023/09/13 08:41:31;;;;;;;1999.90;999.90;;;;;;;;;;5087249;28;20044;-88
2023/09/13 08:43:59;;;;;;;1999.90;999.90;;;;;;;;;;5082622;28;20443;-89
2023/09/13 08:46:26;;;;;;;1999.90;999.90;;;;;;;;;;5087336;28;20063;-88
2023/09/13 08:48:54;;;;;;;1999.90;999.90;;;;;;;;;;5082861;28;20493;-89
2023/09/13 08:51:22;;;;;;;1999.90;999.90;;;;;;;;;;5081157;28;20071;-88
2023/09/13 08:53:51;;;;;;;1999.90;999.90;;;;;;;;;;5082444;28;20052;-88
2023/09/13 08:56:20;;;;;;;1999.90;999.90;;;;;;;;;;5082455;28;20101;-87
2023/09/13 08:58:47;;;;;;;1999.90;999.90;;;;;;;;;;5080418;28;20051;-89
2023/09/13 09:01:15;;;;;;;1999.90;999.90;;;;;;;;;;5082468;28;20063;-86
2023/09/13 09:03:42;;;;;;;1999.90;999.90;;;;;;;;;;5081171;28;20515;-87
2023/09/13 09:06:09;;;;;;;1999.90;999.90;;;;;;;;;;5040950;28;20049;-86
2023/09/13 09:08:39;;;;;;;1999.90;999.90;;;;;;;;;;5050114;28;20390;-84
2023/09/13 09:11:06;;;;;;;1999.90;999.90;;;;;;;;;;5059218;28;20051;-85
2023/09/13 09:13:36;;;;;;;1999.90;999.90;;;;;;;;;;5061591;28;20059;-85
2023/09/13 09:16:04;;;;;;;1999.90;999.90;;;;;;;;;;5060892;28;20049;-85
2023/09/13 09:18:33;;;;;;;1999.90;999.90;;;;;;;;;;5056948;28;20112;-85
2023/09/13 09:21:00;;;;;;;1999.90;999.90;;;;;;;;;;5056409;28;20456;-85
2023/09/13 09:23:28;;;;;;;1999.90;999.90;;;;;;;;;;5057976;28;20045;-83
2023/09/13 09:25:56;;;;;;;1999.90;999.90;;;;;;;;;;5059078;28;20049;-85
2023/09/13 09:28:23;;;;;;;1999.90;999.90;;;;;;;;;;5058133;28;20080;-84
2023/09/13 09:30:52;;;;;;;1999.90;999.90;;;;;;;;;;5058857;28;20045;-83
2023/09/13 09:33:27;;;;;;;1999.90;999.90;;;;;;;;;;5057874;28;20053;-84
2023/09/13 09:35:55;;;;;;;1999.90;999.90;;;;;;;;;;5041730;28;20052;-87
2023/09/13 09:38:22;;;;;;;1999.90;999.90;;;;;;;;;;5039949;28;20064;-87
2023/09/13 09:40:49;;;;;;;1999.90;999.90;;;;;;;;;;5036649;28;20413;-86
2023/09/13 09:43:15;;;;;;;1999.90;999.90;;;;;;;;;;5039054;28;20045;-86
2023/09/13 09:45:42;;;;;;;1999.90;999.90;;;;;;;;;;5037639;28;20069;-87
2023/09/13 09:48:10;;;;;;;1999.90;999.90;;;;;;;;;;5036730;28;20053;-85
2023/09/13 09:50:38;;;;;;;1999.90;999.90;;;;;;;;;;5037903;28;20076;-87
2023/09/13 09:53:09;;;;;;;1999.90;999.90;;;;;;;;;;5040053;28;20084;-87
2023/09/13 09:55:37;;;;;;;1999.90;999.90;;;;;;;;;;5040036;28;20045;-87
2023/09/13 09:58:03;;;;;;;1999.90;999.90;;;;;;;;;;5040691;28;20512;-87
2023/09/13 10:00:30;;;;;;;1999.90;999.90;;;;;;;;;;5039866;28;20049;-87
2023/09/13 10:02:57;;;;;;;1999.90;999.90;;;;;;;;;;5042041;28;20049;-87
2023/09/13 10:05:24;;;;;;;1999.90;999.90;;;;;;;;;;5066018;28;20052;-86
2023/09/13 10:07:54;;;;;;;1999.90;999.90;;;;;;;;;;5077034;28;20048;-87
2023/09/13 10:10:30;;;;;;;1999.90;999.90;;;;;;;;;;5080632;28;20416;-87
2023/09/13 10:12:57;;;;;;;1999.90;999.90;;;;;;;;;;5077139;28;20051;-87
2023/09/13 10:15:24;;;;;;;1999.90;999.90;;;;;;;;;;5082084;28;20055;-87
2023/09/13 10:17:50;;;;;;;1999.90;999.90;;;;;;;;;;5080402;28;20071;-86
2023/09/13 10:20:18;;;;;;;1999.90;999.90;;;;;;;;;;5081126;28;20404;-86
2023/09/13 10:22:47;;;;;;;1999.90;999.90;;;;;;;;;;5078144;28;20148;-88
2023/09/13 10:25:15;;;;;;;1999.90;999.90;;;;;;;;;;5080672;28;20051;-86
2023/09/13 10:27:43;;;;;;;1999.90;999.90;;;;;;;;;;5081256;28;20052;-87
2023/09/13 10:30:11;;;;;;;1999.90;999.90;;;;;;;;;;5077840;28;20040;-86
2023/09/13 10:32:45;;;;;;;1999.90;999.90;;;;;;;;;;5079652;28;20055;-86
2023/09/13 10:35:12;;;;;;;1999.90;999.90;;;;;;;;;;5080832;28;20071;-85
2023/09/13 10:37:44;;;;;;;1999.90;999.90;;;;;;;;;;5084282;28;20052;-85
2023/09/13 10:40:16;;;;;;;1999.90;999.90;;;;;;;;;;5077877;28;20071;-86
2023/09/13 10:42:43;;;;;;;1999.90;999.90;;;;;;;;;;5080670;28;20407;-85
2023/09/13 10:45:14;;;;;;;1999.90;999.90;;;;;;;;;;5074229;28;20047;-86
2023/09/13 10:47:42;;;;;;;1999.90;999.90;;;;;;;;;;5078157;28;20404;-86
2023/09/13 10:50:08;;;;;;;1999.90;999.90;;;;;;;;;;5078137;28;20059;-85
2023/09/13 10:52:36;;;;;;;1999.90;999.90;;;;;;;;;;5080704;28;20040;-85
2023/09/13 10:55:05;;;;;;;1999.90;999.90;;;;;;;;;;5084150;28;20401;-88
2023/09/13 10:57:33;;;;;;;1999.90;999.90;;;;;;;;;;5076410;28;20049;-86
2023/09/13 11:00:00;;;;;;;1999.90;999.90;;;;;;;;;;5080058;28;20041;-85
2023/09/13 11:02:27;;;;;;;1999.90;999.90;;;;;;;;;;5078497;28;20060;-86
2023/09/13 11:04:53;;;;;;;1999.90;999.90;;;;;;;;;;5080474;28;20056;-84
2023/09/13 11:07:20;;;;;;;1999.90;999.90;;;;;;;;;;5081201;28;20051;-86
2023/09/13 11:09:47;;;;;;;1999.90;999.90;;;;;;;;;;5077985;28;20041;-86
2023/09/13 11:12:13;;;;;;;1999.90;999.90;;;;;;;;;;5085319;28;20386;-87
2023/09/13 11:14:46;;;;;;;1999.90;999.90;;;;;;;;;;5079068;28;20050;-85
2023/09/13 11:17:38;;;;;;;1999.90;999.90;;;;;;;;;;5079099;28;20129;-86
2023/09/13 11:20:27;;;;;;;1999.90;999.90;;;;;;;;;;5078311;28;20502;-86
2023/09/13 11:23:01;;;;;;;1999.90;999.90;;;;;;;;;;5078366;28;20045;-88
2023/09/13 11:25:31;;;;;;;1999.90;999.90;;;;;;;;;;5081048;28;20597;-84
2023/09/13 11:27:58;;;;;;;1999.90;999.90;;;;;;;;;;5082558;28;20093;-85
2023/09/13 11:30:47;;;;;;;1999.90;999.90;;;;;;;;;;5081420;28;20045;-86
2023/09/13 11:33:14;;;;;;;1999.90;999.90;;;;;;;;;;5081576;28;20102;-84
2023/09/13 11:35:42;;;;;;;1999.90;999.90;;;;;;;;;;5082070;28;20049;-86
2023/09/13 11:38:09;;;;;;;1999.90;999.90;;;;;;;;;;5081764;28;20036;-88
2023/09/13 11:40:37;;;;;;;1999.90;999.90;;;;;;;;;;5083872;28;20556;-87
2023/09/13 11:43:04;;;;;;;1999.90;999.90;;;;;;;;;;5084125;28;20047;-86
2023/09/13 11:45:33;;;;;;;1999.90;999.90;;;;;;;;;;5085389;28;20048;-85
2023/09/13 11:48:04;;;;;;;1999.90;999.90;;;;;;;;;;5085537;28;20139;-86
2023/09/13 11:50:40;;;;;;;1999.90;999.90;;;;;;;;;;5085160;28;20044;-88
2023/09/13 11:53:13;;;;;;;1999.90;999.90;;;;;;;;;;5081987;28;20518;-89
2023/09/13 11:55:40;;;;;;;1999.90;999.90;;;;;;;;;;5081655;28;20047;-85
2023/09/13 11:58:06;;;;;;;1999.90;999.90;;;;;;;;;;5085192;28;20553;-88
2023/09/13 12:00:40;;;;;;;1999.90;999.90;;;;;;;;;;5082853;28;20053;-88
2023/09/13 12:03:08;;;;;;;1999.90;999.90;;;;;;;;;;5081836;28;20048;-89
2023/09/13 12:05:38;;;;;;;1999.90;999.90;;;;;;;;;;5083198;28;20053;-89
2023/09/13 12:08:19;;;;;;;1999.90;999.90;;;;;;;;;;5084783;28;20079;-88
2023/09/13 12:10:45;;;;;;;1999.90;999.90;;;;;;;;;;5084633;28;20051;-92
2023/09/13 12:13:12;;;;;;;1999.90;999.90;;;;;;;;;;5082865;28;20044;-88
2023/09/13 12:16:00;;;;;;;1999.90;999.90;;;;;;;;;;5081471;28;20467;-90
2023/09/13 12:18:30;;;;;;;1999.90;999.90;;;;;;;;;;5082088;28;20056;-92
2023/09/13 12:20:58;;;;;;;1999.90;999.90;;;;;;;;;;5081142;28;20123;-91
2023/09/13 12:23:25;;;;;;;1999.90;999.90;;;;;;;;;;5085695;28;20044;-91
2023/09/13 12:25:52;;;;;;;1999.90;999.90;;;;;;;;;;5080694;28;20385;-90
2023/09/13 12:28:26;;;;;;;1999.90;999.90;;;;;;;;;;5081571;28;20047;-87
2023/09/13 12:30:53;;;;;;;1999.90;999.90;;;;;;;;;;5080757;28;20093;-86
2023/09/13 12:33:20;;;;;;;1999.90;999.90;;;;;;;;;;5081070;28;20114;-85
2023/09/13 12:35:48;;;;;;;1999.90;999.90;;;;;;;;;;5083517;28;20405;-86
2023/09/13 12:38:16;;;;;;;1999.90;999.90;;;;;;;;;;5077265;28;20044;-86
2023/09/13 12:40:48;;;;;;;1999.90;999.90;;;;;;;;;;5082270;28;20044;-88
2023/09/13 12:43:14;;;;;;;1999.90;999.90;;;;;;;;;;5081281;28;20400;-87
2023/09/13 12:45:41;;;;;;;1999.90;999.90;;;;;;;;;;5082788;28;20427;-87
2023/09/13 12:48:08;;;;;;;1999.90;999.90;;;;;;;;;;5081711;28;20054;-86
2023/09/13 12:50:34;;;;;;;1999.90;999.90;;;;;;;;;;5083876;28;20056;-86
2023/09/13 12:53:02;;;;;;;1999.90;999.90;;;;;;;;;;5079578;28;20044;-88
2023/09/13 12:55:30;;;;;;;1999.90;999.90;;;;;;;;;;5079653;28;20056;-87
2023/09/13 12:58:02;;;;;;;1999.90;999.90;;;;;;;;;;5080979;28;20063;-89
2023/09/13 13:00:29;;;;;;;1999.90;999.90;;;;;;;;;;5079233;28;20051;-89
2023/09/13 13:02:55;;;;;;;1999.90;999.90;;;;;;;;;;5082829;28;20060;-89
2023/09/13 13:05:22;;;;;;;1999.90;999.90;;;;;;;;;;5078534;28;20060;-87
2023/09/13 13:07:48;;;;;;;1999.90;999.90;;;;;;;;;;5081142;28;20037;-88
2023/09/13 13:10:16;;;;;;;1999.90;999.90;;;;;;;;;;5081511;28;20056;-87
2023/09/13 13:12:43;;;;;;;1999.90;999.90;;;;;;;;;;5083631;28;20492;-86
2023/09/13 13:15:10;;;;;;;1999.90;999.90;;;;;;;;;;5080456;28;20792;-87
2023/09/13 13:17:38;;;;;;;1999.90;999.90;;;;;;;;;;5079661;28;20132;-85
2023/09/13 13:20:06;;;;;;;1999.90;999.90;;;;;;;;;;5079656;28;20063;-86
2023/09/13 13:22:33;;;;;;;1999.90;999.90;;;;;;;;;;5080147;28;20044;-86
2023/09/13 13:25:00;;;;;;;1999.90;999.90;;;;;;;;;;5076934;28;20105;-84
2023/09/13 13:27:28;;;;;;;1999.90;999.90;;;;;;;;;;5084721;28;20060;-86
2023/09/13 13:29:55;;;;;;;1999.90;999.90;;;;;;;;;;5080334;28;20090;-88
2023/09/13 13:32:22;;;;;;;1999.90;999.90;;;;;;;;;;5080084;28;20056;-87
2023/09/13 13:34:49;;;;;;;1999.90;999.90;;;;;;;;;;5077265;28;20058;-87
2023/09/13 13:37:16;;;;;;;1999.90;999.90;;;;;;;;;;5079934;28;20079;-86
2023/09/13 13:39:43;;;;;;;1999.90;999.90;;;;;;;;;;5079995;28;20051;-86
2023/09/13 13:42:09;;;;;;;1999.90;999.90;;;;;;;;;;5081420;28;20048;-86
2023/09/13 13:44:37;;;;;;;1999.90;999.90;;;;;;;;;;5084601;28;20055;-87